sensor_id;sensor_type;location;lat;lon;timestamp;temperature;humidity
64561;DHT22;50960;46.838;16.838;2023-05-16T14:30:23;13.60;99.90
64561;DHT22;50960;46.838;16.838;2023-05-16T14:32:51;13.50;99.90
64561;DHT22;50960;46.838;16.838;2023-05-16T14:35:36;13.40;99.90
64561;DHT22;50960;46.838;16.838;2023-05-16T14:38:06;13.40;99.90
64561;DHT22;50960;46.838;16.838;2023-05-16T14:40:33;13.50;99.90
64561;DHT22;50960;46.838;16.838;2023-05-16T14:42:59;13.50;99.90
64561;DHT22;50960;46.838;16.838;2023-05-16T14:45:25;13.40;99.90
64561;DHT22;50960;46.838;16.838;2023-05-16T14:47:53;13.50;99.90
64561;DHT22;50960;46.838;16.838;2023-05-16T14:50:20;13.50;99.90
64561;DHT22;50960;46.838;16.838;2023-05-16T14:52:46;13.50;99.90
64561;DHT22;50960;46.838;16.838;2023-05-16T14:55:16;13.50;99.90
64561;DHT22;50960;46.838;16.838;2023-05-16T14:57:43;13.40;99.90
64561;DHT22;50960;46.838;16.838;2023-05-16T15:00:10;13.40;99.90
64561;DHT22;50960;46.838;16.838;2023-05-16T15:02:37;13.30;99.90
64561;DHT22;50960;46.838;16.838;2023-05-16T15:05:04;13.20;99.90
64561;DHT22;50960;46.838;16.838;2023-05-16T15:07:31;13.30;99.90
64561;DHT22;50960;46.838;16.838;2023-05-16T15:09:58;13.30;99.90
64561;DHT22;50960;46.838;16.838;2023-05-16T15:12:24;13.30;99.90
64561;DHT22;50960;46.838;16.838;2023-05-16T15:14:55;13.20;99.90
64561;DHT22;50960;46.838;16.838;2023-05-16T15:17:22;13.20;99.90
64561;DHT22;50960;46.838;16.838;2023-05-16T15:19:48;13.20;99.90
64561;DHT22;50960;46.838;16.838;2023-05-16T15:22:14;13.20;99.90
64561;DHT22;50960;46.838;16.838;2023-05-16T15:24:42;13.30;99.90
64561;DHT22;50960;46.838;16.838;2023-05-16T15:27:09;13.20;99.90
64561;DHT22;50960;46.838;16.838;2023-05-16T15:29:35;13.20;99.90
64561;DHT22;50960;46.838;16.838;2023-05-16T15:32:06;13.20;99.90
64561;DHT22;50960;46.838;16.838;2023-05-16T15:34:34;13.30;99.90
64561;DHT22;50960;46.838;16.838;2023-05-16T15:37:01;13.20;99.90
64561;DHT22;50960;46.838;16.838;2023-05-16T15:39:27;13.20;99.90
64561;DHT22;50960;46.838;16.838;2023-05-16T15:41:54;13.10;99.90
64561;DHT22;50960;46.838;16.838;2023-05-16T15:44:21;13.10;99.90
64561;DHT22;50960;46.838;16.838;2023-05-16T15:46:48;13.20;99.90
64561;DHT22;50960;46.838;16.838;2023-05-16T15:49:16;13.30;99.90
64561;DHT22;50960;46.838;16.838;2023-05-16T15:51:42;13.30;99.90
64561;DHT22;50960;46.838;16.838;2023-05-16T15:54:10;13.30;99.90
64561;DHT22;50960;46.838;16.838;2023-05-16T15:56:36;13.30;99.90
64561;DHT22;50960;46.838;16.838;2023-05-16T15:59:03;13.20;99.90
64561;DHT22;50960;46.838;16.838;2023-05-16T16:01:29;13.20;99.90
64561;DHT22;50960;46.838;16.838;2023-05-16T16:03:56;13.20;99.90
64561;DHT22;50960;46.838;16.838;2023-05-16T16:06:22;13.20;99.90
64561;DHT22;50960;46.838;16.838;2023-05-16T16:08:48;13.30;99.90
64561;DHT22;50960;46.838;16.838;2023-05-16T16:11:15;13.30;99.90
64561;DHT22;50960;46.838;16.838;2023-05-16T16:13:41;13.30;99.90
64561;DHT22;50960;46.838;16.838;2023-05-16T16:16:07;13.30;99.90
64561;DHT22;50960;46.838;16.838;2023-05-16T16:18:35;13.10;99.90
64561;DHT22;50960;46.838;16.838;2023-05-16T16:21:01;13.10;99.90
64561;DHT22;50960;46.838;16.838;2023-05-16T16:23:29;13.10;99.90
64561;DHT22;50960;46.838;16.838;2023-05-16T16:25:58;13.20;99.90
64561;DHT22;50960;46.838;16.838;2023-05-16T16:28:25;13.20;99.90
64561;DHT22;50960;46.838;16.838;2023-05-16T16:30:51;13.20;99.90
64561;DHT22;50960;46.838;16.838;2023-05-16T16:33:18;13.20;99.90
64561;DHT22;50960;46.838;16.838;2023-05-16T16:35:44;13.30;99.90
64561;DHT22;50960;46.838;16.838;2023-05-16T16:38:11;13.30;99.90
64561;DHT22;50960;46.838;16.838;2023-05-16T16:40:37;13.20;99.90
64561;DHT22;50960;46.838;16.838;2023-05-16T16:43:05;13.30;99.90
64561;DHT22;50960;46.838;16.838;2023-05-16T16:45:32;13.30;99.90
64561;DHT22;50960;46.838;16.838;2023-05-16T16:47:58;13.10;99.90
64561;DHT22;50960;46.838;16.838;2023-05-16T16:50:24;13.10;99.90
64561;DHT22;50960;46.838;16.838;2023-05-16T16:52:52;13.00;99.90
64561;DHT22;50960;46.838;16.838;2023-05-16T16:55:26;13.00;99.90
64561;DHT22;50960;46.838;16.838;2023-05-16T16:57:52;13.10;99.90
64561;DHT22;50960;46.838;16.838;2023-05-16T17:00:19;13.00;99.90
64561;DHT22;50960;46.838;16.838;2023-05-16T17:02:45;13.10;99.90
64561;DHT22;50960;46.838;16.838;2023-05-16T17:05:12;13.00;99.90
64561;DHT22;50960;46.838;16.838;2023-05-16T17:07:38;13.10;99.90
64561;DHT22;50960;46.838;16.838;2023-05-16T17:10:05;13.10;99.90
64561;DHT22;50960;46.838;16.838;2023-05-16T17:12:33;13.00;99.90
64561;DHT22;50960;46.838;16.838;2023-05-16T17:15:00;12.90;99.90
64561;DHT22;50960;46.838;16.838;2023-05-16T17:17:26;12.90;99.90
64561;DHT22;50960;46.838;16.838;2023-05-16T17:19:53;13.00;99.90
64561;DHT22;50960;46.838;16.838;2023-05-16T17:22:19;13.10;99.90
64561;DHT22;50960;46.838;16.838;2023-05-16T17:24:47;13.10;99.90
64561;DHT22;50960;46.838;16.838;2023-05-16T17:27:13;13.10;99.90
64561;DHT22;50960;46.838;16.838;2023-05-16T17:29:39;13.00;99.90
64561;DHT22;50960;46.838;16.838;2023-05-16T17:32:06;13.10;99.90
64561;DHT22;50960;46.838;16.838;2023-05-16T17:34:32;13.10;99.90
64561;DHT22;50960;46.838;16.838;2023-05-16T17:36:59;13.00;99.90
64561;DHT22;50960;46.838;16.838;2023-05-16T17:39:25;13.00;99.90
64561;DHT22;50960;46.838;16.838;2023-05-16T17:41:52;12.90;99.90
64561;DHT22;50960;46.838;16.838;2023-05-16T17:44:24;12.90;99.90
64561;DHT22;50960;46.838;16.838;2023-05-16T17:46:57;13.00;99.90
64561;DHT22;50960;46.838;16.838;2023-05-16T17:49:24;13.00;99.90
64561;DHT22;50960;46.838;16.838;2023-05-16T17:51:54;13.00;99.90
64561;DHT22;50960;46.838;16.838;2023-05-16T17:54:24;12.90;99.90
64561;DHT22;50960;46.838;16.838;2023-05-16T17:56:52;12.80;99.90
64561;DHT22;50960;46.838;16.838;2023-05-16T17:59:19;12.70;99.90
64561;DHT22;50960;46.838;16.838;2023-05-16T18:01:47;12.70;99.90
64561;DHT22;50960;46.838;16.838;2023-05-16T18:04:13;12.80;99.90
64561;DHT22;50960;46.838;16.838;2023-05-16T18:06:40;12.60;99.90
64561;DHT22;50960;46.838;16.838;2023-05-16T18:09:07;12.60;99.90
64561;DHT22;50960;46.838;16.838;2023-05-16T18:14:02;12.50;99.90
64561;DHT22;50960;46.838;16.838;2023-05-16T18:16:29;12.50;99.90
64561;DHT22;50960;46.838;16.838;2023-05-16T18:18:56;12.50;99.90
64561;DHT22;50960;46.838;16.838;2023-05-16T18:21:23;12.50;99.90
64561;DHT22;50960;46.838;16.838;2023-05-16T18:23:49;12.50;99.90
64561;DHT22;50960;46.838;16.838;2023-05-16T18:26:16;12.50;99.90
64561;DHT22;50960;46.838;16.838;2023-05-16T18:28:44;12.40;99.90
64561;DHT22;50960;46.838;16.838;2023-05-16T18:31:11;12.40;99.90
64561;DHT22;50960;46.838;16.838;2023-05-16T18:33:38;12.40;99.90
64561;DHT22;50960;46.838;16.838;2023-05-16T18:36:04;12.40;99.90
64561;DHT22;50960;46.838;16.838;2023-05-16T18:38:32;12.40;99.90
64561;DHT22;50960;46.838;16.838;2023-05-16T18:40:59;12.40;99.90
64561;DHT22;50960;46.838;16.838;2023-05-16T18:43:26;12.30;99.90
64561;DHT22;50960;46.838;16.838;2023-05-16T18:45:53;12.30;99.90
64561;DHT22;50960;46.838;16.838;2023-05-16T18:48:20;12.30;99.90
64561;DHT22;50960;46.838;16.838;2023-05-16T18:50:47;12.30;99.90
64561;DHT22;50960;46.838;16.838;2023-05-16T18:53:14;12.30;99.90
64561;DHT22;50960;46.838;16.838;2023-05-16T18:55:40;12.40;99.90
64561;DHT22;50960;46.838;16.838;2023-05-16T18:58:07;12.40;99.90
64561;DHT22;50960;46.838;16.838;2023-05-16T19:00:34;12.40;99.90
64561;DHT22;50960;46.838;16.838;2023-05-16T19:03:00;12.40;99.90
64561;DHT22;50960;46.838;16.838;2023-05-16T19:05:27;12.40;99.90
64561;DHT22;50960;46.838;16.838;2023-05-16T19:07:54;12.40;99.90
64561;DHT22;50960;46.838;16.838;2023-05-16T19:10:20;12.40;99.90
64561;DHT22;50960;46.838;16.838;2023-05-16T19:12:47;12.30;99.90
64561;DHT22;50960;46.838;16.838;2023-05-16T19:15:14;12.40;99.90
64561;DHT22;50960;46.838;16.838;2023-05-16T19:17:41;12.30;99.90
64561;DHT22;50960;46.838;16.838;2023-05-16T19:20:08;12.30;99.90
64561;DHT22;50960;46.838;16.838;2023-05-16T19:22:36;12.40;99.90
64561;DHT22;50960;46.838;16.838;2023-05-16T19:25:03;12.50;99.90
64561;DHT22;50960;46.838;16.838;2023-05-16T19:27:29;12.50;99.90
64561;DHT22;50960;46.838;16.838;2023-05-16T19:29:56;12.50;99.90
64561;DHT22;50960;46.838;16.838;2023-05-16T19:32:22;12.50;99.90
64561;DHT22;50960;46.838;16.838;2023-05-16T19:34:48;12.50;99.90
64561;DHT22;50960;46.838;16.838;2023-05-16T19:37:15;12.60;99.90
64561;DHT22;50960;46.838;16.838;2023-05-16T19:39:41;12.60;99.90
64561;DHT22;50960;46.838;16.838;2023-05-16T19:42:07;12.60;99.90
64561;DHT22;50960;46.838;16.838;2023-05-16T19:44:34;12.60;99.90
64561;DHT22;50960;46.838;16.838;2023-05-16T19:47:00;12.60;99.90
64561;DHT22;50960;46.838;16.838;2023-05-16T19:49:27;12.60;99.90
64561;DHT22;50960;46.838;16.838;2023-05-16T19:51:53;12.60;99.90
64561;DHT22;50960;46.838;16.838;2023-05-16T19:54:19;12.60;99.90
64561;DHT22;50960;46.838;16.838;2023-05-16T19:56:46;12.60;99.90
64561;DHT22;50960;46.838;16.838;2023-05-16T19:59:12;12.60;99.90
64561;DHT22;50960;46.838;16.838;2023-05-16T20:01:40;12.60;99.90
64561;DHT22;50960;46.838;16.838;2023-05-16T20:04:06;12.60;99.90
64561;DHT22;50960;46.838;16.838;2023-05-16T20:06:32;12.60;99.90
64561;DHT22;50960;46.838;16.838;2023-05-16T20:08:59;12.60;99.90
64561;DHT22;50960;46.838;16.838;2023-05-16T20:11:25;12.60;99.90
64561;DHT22;50960;46.838;16.838;2023-05-16T20:13:51;12.70;99.90
64561;DHT22;50960;46.838;16.838;2023-05-16T20:16:22;12.60;99.90
64561;DHT22;50960;46.838;16.838;2023-05-16T20:18:48;12.70;99.90
64561;DHT22;50960;46.838;16.838;2023-05-16T20:21:14;12.70;99.90
64561;DHT22;50960;46.838;16.838;2023-05-16T20:23:41;12.70;99.90
64561;DHT22;50960;46.838;16.838;2023-05-16T20:26:07;12.70;99.90
64561;DHT22;50960;46.838;16.838;2023-05-16T20:28:33;12.70;99.90
64561;DHT22;50960;46.838;16.838;2023-05-16T20:31:00;12.70;99.90
64561;DHT22;50960;46.838;16.838;2023-05-16T20:33:26;12.70;99.90
64561;DHT22;50960;46.838;16.838;2023-05-16T20:35:53;12.70;99.90
64561;DHT22;50960;46.838;16.838;2023-05-16T20:38:19;12.70;99.90
64561;DHT22;50960;46.838;16.838;2023-05-16T20:40:46;12.70;99.90
